Time;durP1;ratioP1;P1;durP2;ratioP2;P2;SDS_P1;SDS_P2;PMS_P1;PMS_P2;Temp;Humidity;BMP_temperature;BMP_pressure;BME280_temperature;BME280_humidity;BME280_pressure;Samples;Min_cycle;Max_cycle;Signal;HPM_P1;HPM_P2
2021/05/20 00:00:25;;;;;;;0.57;0.57;;;9.50;99.90;;;;;;5018612;28;20042;-79
2021/05/20 00:02:52;;;;;;;0.35;0.35;;;9.50;99.90;;;;;;5031728;28;20041;-80
2021/05/20 00:05:18;;;;;;;1.60;0.50;;;9.40;99.90;;;;;;5033806;28;20036;-80
2021/05/20 00:07:45;;;;;;;2.00;0.70;;;9.40;99.90;;;;;;5036107;28;20017;-80
2021/05/20 00:10:12;;;;;;;2.13;0.55;;;9.30;99.90;;;;;;5035380;28;20401;-80
2021/05/20 00:12:38;;;;;;;0.52;0.50;;;9.20;99.90;;;;;;5032538;28;20017;-80
2021/05/20 00:15:05;;;;;;;2.92;0.75;;;9.20;99.90;;;;;;5033985;28;20510;-80
2021/05/20 00:17:32;;;;;;;1.30;0.68;;;9.20;99.90;;;;;;5035713;28;20072;-80
2021/05/20 00:19:57;;;;;;;1.60;0.80;;;9.10;99.90;;;;;;5034389;28;20060;-80
2021/05/20 00:22:23;;;;;;;1.08;0.70;;;9.10;99.90;;;;;;5033944;28;20048;-79
2021/05/20 00:24:49;;;;;;;1.10;0.73;;;9.10;99.90;;;;;;5031812;28;20029;-80
2021/05/20 00:27:15;;;;;;;1.23;0.60;;;9.00;99.90;;;;;;5035225;28;20048;-80
2021/05/20 00:29:41;;;;;;;1.13;0.60;;;9.00;99.90;;;;;;5016433;28;20037;-80
2021/05/20 00:32:07;;;;;;;1.08;0.60;;;9.00;99.90;;;;;;5031169;28;20022;-79
2021/05/20 00:34:33;;;;;;;0.77;0.60;;;8.90;99.90;;;;;;5028347;28;20033;-80
2021/05/20 00:36:59;;;;;;;0.63;0.57;;;8.90;99.90;;;;;;5034628;28;20053;-80
2021/05/20 00:39:24;;;;;;;1.90;0.77;;;8.90;99.90;;;;;;5033750;28;20521;-80
2021/05/20 00:41:50;;;;;;;0.80;0.80;;;8.90;99.90;;;;;;5035018;28;20508;-80
2021/05/20 00:44:16;;;;;;;0.77;0.60;;;8.90;99.90;;;;;;5031808;28;20038;-79
2021/05/20 00:46:41;;;;;;;0.90;0.65;;;8.80;99.90;;;;;;5033905;28;20081;-79
2021/05/20 00:49:10;;;;;;;1.08;0.50;;;8.80;99.90;;;;;;5027264;28;20077;-80
2021/05/20 00:51:40;;;;;;;1.95;0.70;;;8.70;99.90;;;;;;5010680;28;20630;-80
2021/05/20 00:54:07;;;;;;;1.35;0.80;;;8.70;99.90;;;;;;5014766;28;20492;-80
2021/05/20 00:56:35;;;;;;;0.82;0.70;;;8.60;99.90;;;;;;5034312;28;20042;-80
2021/05/20 00:59:03;;;;;;;0.80;0.60;;;8.50;99.90;;;;;;5033553;28;20034;-79
2021/05/20 01:01:29;;;;;;;0.98;0.65;;;8.50;99.90;;;;;;5032505;28;20041;-80
2021/05/20 01:03:56;;;;;;;0.80;0.70;;;8.40;99.90;;;;;;4997080;28;20036;-80
2021/05/20 01:06:22;;;;;;;0.65;0.60;;;8.40;99.90;;;;;;5034375;28;20109;-80
2021/05/20 01:08:47;;;;;;;1.10;0.80;;;8.30;99.90;;;;;;5035041;28;20061;-80
2021/05/20 01:11:13;;;;;;;1.42;0.80;;;8.40;99.90;;;;;;5032883;28;20084;-80
2021/05/20 01:13:41;;;;;;;1.40;0.88;;;8.30;99.90;;;;;;5032322;28;20493;-80
2021/05/20 01:16:13;;;;;;;1.40;0.52;;;8.30;99.90;;;;;;5033293;28;20059;-80
2021/05/20 01:18:39;;;;;;;1.73;0.63;;;8.20;99.90;;;;;;5031893;28;20120;-80
2021/05/20 01:21:05;;;;;;;0.80;0.63;;;8.10;99.90;;;;;;5017766;28;20509;-80
2021/05/20 01:23:30;;;;;;;0.93;0.80;;;8.20;99.90;;;;;;5015127;28;20041;-80
2021/05/20 01:26:01;;;;;;;0.70;0.60;;;8.10;99.90;;;;;;5033722;28;20079;-80
2021/05/20 01:28:28;;;;;;;0.80;0.80;;;8.10;99.90;;;;;;5033450;28;20044;-80
2021/05/20 01:30:54;;;;;;;3.00;1.13;;;8.10;99.90;;;;;;5035487;28;20504;-79
2021/05/20 01:33:20;;;;;;;0.73;0.70;;;8.00;99.90;;;;;;5031017;28;20030;-80
2021/05/20 01:35:46;;;;;;;3.38;0.70;;;8.10;99.90;;;;;;5016080;28;20037;-80
2021/05/20 01:41:02;;;;;;;1.50;0.85;;;8.20;99.90;;;;;;5029714;28;20044;-80
2021/05/20 01:43:29;;;;;;;2.30;0.75;;;8.10;99.90;;;;;;5031996;28;20106;-79
2021/05/20 01:45:59;;;;;;;0.50;0.50;;;8.10;99.90;;;;;;5028271;28;20571;-80
2021/05/20 01:48:29;;;;;;;1.05;0.85;;;8.10;99.90;;;;;;5032272;28;20033;-79
2021/05/20 01:51:02;;;;;;;2.92;0.60;;;8.00;99.90;;;;;;5029224;28;20088;-80
2021/05/20 01:53:29;;;;;;;0.60;0.45;;;8.00;99.90;;;;;;5031768;28;20425;-79
2021/05/20 01:55:55;;;;;;;0.75;0.70;;;7.80;99.90;;;;;;5027796;28;20033;-80
2021/05/20 01:58:20;;;;;;;0.80;0.68;;;7.70;99.90;;;;;;5011893;28;20045;-80
2021/05/20 02:00:46;;;;;;;0.63;0.55;;;7.70;99.90;;;;;;5044461;28;20395;-79
2021/05/20 02:03:12;;;;;;;1.05;0.63;;;7.70;99.90;;;;;;5007360;28;20038;-80
2021/05/20 02:05:37;;;;;;;0.95;0.63;;;7.70;99.90;;;;;;5033698;28;20025;-79
2021/05/20 02:08:03;;;;;;;1.33;0.60;;;7.80;99.90;;;;;;5034777;28;20029;-80
2021/05/20 02:10:29;;;;;;;4.68;0.80;;;7.70;99.90;;;;;;5033834;28;20083;-80
2021/05/20 02:12:55;;;;;;;1.00;0.65;;;7.80;99.90;;;;;;5031204;28;20017;-80
2021/05/20 02:15:21;;;;;;;1.33;0.65;;;7.80;99.90;;;;;;5031942;28;20033;-79
2021/05/20 02:17:47;;;;;;;1.38;0.90;;;7.80;99.90;;;;;;5034324;28;20131;-79
2021/05/20 02:20:13;;;;;;;1.52;0.70;;;7.90;99.90;;;;;;5033233;28;20072;-80
2021/05/20 02:22:39;;;;;;;0.82;0.73;;;7.90;99.90;;;;;;5031968;28;20029;-78
2021/05/20 02:25:05;;;;;;;1.10;0.75;;;7.90;99.90;;;;;;5032039;28;20079;-79
2021/05/20 02:27:31;;;;;;;0.60;0.60;;;7.90;99.90;;;;;;5016587;28;20034;-80
2021/05/20 02:29:57;;;;;;;0.95;0.80;;;7.90;99.90;;;;;;5032424;28;20026;-80
2021/05/20 02:32:23;;;;;;;1.58;0.70;;;8.00;99.90;;;;;;5031847;28;20037;-80
2021/05/20 02:34:49;;;;;;;0.95;0.65;;;8.00;99.90;;;;;;5031656;28;20029;-79
2021/05/20 02:37:15;;;;;;;1.52;0.90;;;8.00;99.90;;;;;;5031150;28;20036;-79
2021/05/20 02:39:40;;;;;;;1.17;1.08;;;8.00;99.90;;;;;;5034317;28;20076;-79
2021/05/20 02:42:06;;;;;;;1.35;1.00;;;8.00;99.90;;;;;;5032454;28;20025;-80
2021/05/20 02:44:33;;;;;;;0.90;0.77;;;8.00;99.90;;;;;;5028930;28;20026;-80
2021/05/20 02:46:59;;;;;;;1.50;1.00;;;7.90;99.90;;;;;;5033640;28;20060;-79
2021/05/20 02:49:24;;;;;;;2.28;1.00;;;8.00;99.90;;;;;;5034269;28;20029;-80
2021/05/20 02:51:50;;;;;;;1.95;1.20;;;8.00;99.90;;;;;;5030907;28;20029;-80
2021/05/20 02:54:16;;;;;;;1.95;1.75;;;8.00;99.90;;;;;;5031284;28;20043;-79
2021/05/20 02:56:41;;;;;;;2.78;0.90;;;7.90;99.90;;;;;;5015438;28;20037;-80
2021/05/20 02:59:09;;;;;;;2.30;1.20;;;7.80;99.90;;;;;;5032459;28;20096;-79
2021/05/20 03:01:40;;;;;;;1.30;1.20;;;7.80;99.90;;;;;;5031407;28;20603;-80
2021/05/20 03:04:06;;;;;;;1.30;1.08;;;7.80;99.90;;;;;;5030184;28;20068;-80
2021/05/20 03:06:32;;;;;;;1.83;1.52;;;7.90;99.90;;;;;;5032058;28;20045;-80
2021/05/20 03:08:58;;;;;;;3.17;1.48;;;7.90;99.90;;;;;;5032826;28;20043;-79
2021/05/20 03:11:26;;;;;;;1.30;1.20;;;7.90;99.90;;;;;;5030998;28;20035;-79
2021/05/20 03:13:52;;;;;;;1.80;1.35;;;7.90;99.90;;;;;;5030803;28;20018;-80
2021/05/20 03:16:18;;;;;;;1.75;1.13;;;7.90;99.90;;;;;;5035351;28;20190;-79
2021/05/20 03:18:43;;;;;;;2.45;1.40;;;8.00;99.90;;;;;;5037901;28;20041;-80
2021/05/20 03:21:09;;;;;;;1.52;1.27;;;8.00;99.90;;;;;;5037152;28;21513;-80
2021/05/20 03:23:35;;;;;;;1.65;1.52;;;8.10;99.90;;;;;;5000771;28;20061;-80
2021/05/20 03:26:01;;;;;;;1.30;1.20;;;8.10;99.90;;;;;;5034914;28;20091;-80
2021/05/20 03:28:26;;;;;;;1.95;1.15;;;8.10;99.90;;;;;;5037357;28;20073;-80
2021/05/20 03:30:52;;;;;;;2.53;1.48;;;8.10;99.90;;;;;;5036839;28;20114;-80
2021/05/20 03:33:18;;;;;;;1.77;1.50;;;8.10;99.90;;;;;;5034097;28;20025;-80
2021/05/20 03:35:43;;;;;;;2.53;1.35;;;8.10;99.90;;;;;;5035239;28;20029;-80
2021/05/20 03:38:09;;;;;;;1.45;1.35;;;8.10;99.90;;;;;;5035516;28;20042;-80
2021/05/20 03:40:35;;;;;;;2.47;1.63;;;8.10;99.90;;;;;;5021163;28;20084;-80
2021/05/20 03:43:01;;;;;;;2.20;1.50;;;8.20;99.90;;;;;;5031244;28;20090;-79
2021/05/20 03:45:26;;;;;;;2.67;1.00;;;8.20;99.90;;;;;;5035008;28;20065;-80
2021/05/20 03:47:52;;;;;;;1.70;1.50;;;8.20;99.90;;;;;;5037071;28;20030;-80
2021/05/20 03:50:18;;;;;;;1.50;1.40;;;8.20;99.90;;;;;;5037337;28;20021;-80
2021/05/20 03:52:44;;;;;;;3.30;1.40;;;8.20;99.90;;;;;;5032988;28;20508;-77
2021/05/20 03:55:10;;;;;;;3.13;1.95;;;8.30;99.90;;;;;;5034305;28;20737;-79
2021/05/20 03:57:36;;;;;;;2.80;1.52;;;8.30;99.90;;;;;;5032936;28;20552;-80
2021/05/20 04:00:04;;;;;;;2.05;1.52;;;8.30;99.90;;;;;;5032521;28;20115;-80
2021/05/20 04:02:30;;;;;;;2.03;1.75;;;8.40;99.90;;;;;;5030231;28;20517;-78
2021/05/20 04:04:56;;;;;;;2.05;1.85;;;8.40;99.90;;;;;;5032263;28;20029;-79
2021/05/20 04:07:24;;;;;;;1.65;1.50;;;8.40;99.90;;;;;;5035032;28;20112;-80
2021/05/20 04:09:50;;;;;;;1.52;1.42;;;8.40;99.90;;;;;;5016222;28;20068;-80
2021/05/20 04:12:15;;;;;;;2.15;1.48;;;8.40;99.90;;;;;;5034044;28;20588;-80
2021/05/20 04:14:41;;;;;;;3.30;1.95;;;8.30;99.90;;;;;;5034640;28;20042;-81
2021/05/20 04:17:07;;;;;;;2.33;1.70;;;8.30;99.90;;;;;;5035068;28;20072;-80
2021/05/20 04:19:32;;;;;;;1.70;1.38;;;8.20;99.90;;;;;;5002597;28;20037;-80
2021/05/20 04:21:58;;;;;;;2.17;1.80;;;8.20;99.90;;;;;;5036341;28;20044;-79
2021/05/20 04:24:26;;;;;;;1.85;1.70;;;8.20;99.90;;;;;;5034163;28;20037;-79
2021/05/20 04:26:55;;;;;;;3.47;1.90;;;8.20;99.90;;;;;;5033370;28;20038;-81
2021/05/20 04:29:21;;;;;;;1.85;1.75;;;8.20;99.90;;;;;;5035178;28;20041;-80
2021/05/20 04:31:47;;;;;;;1.60;1.50;;;8.20;99.90;;;;;;5033488;28;20034;-79
2021/05/20 04:34:13;;;;;;;2.15;1.95;;;8.20;99.90;;;;;;5035519;28;20026;-80
2021/05/20 04:36:39;;;;;;;1.88;1.67;;;8.30;99.90;;;;;;5034879;28;20109;-80
2021/05/20 04:39:05;;;;;;;2.17;1.92;;;8.30;99.90;;;;;;5036421;28;20025;-80
2021/05/20 04:41:32;;;;;;;2.05;1.88;;;8.40;99.90;;;;;;5017988;28;20045;-80
2021/05/20 04:43:58;;;;;;;2.90;2.20;;;8.50;99.90;;;;;;5032159;28;20067;-81
2021/05/20 04:46:24;;;;;;;2.50;2.17;;;8.60;99.90;;;;;;5035860;28;20032;-81
2021/05/20 04:48:50;;;;;;;1.90;1.80;;;8.80;99.90;;;;;;5038449;28;20033;-81
2021/05/20 04:51:17;;;;;;;3.20;2.35;;;8.90;99.90;;;;;;5036809;28;20085;-80
2021/05/20 04:53:44;;;;;;;3.00;1.80;;;9.00;99.90;;;;;;5016217;28;20406;-80
2021/05/20 04:56:09;;;;;;;2.58;1.90;;;9.20;99.90;;;;;;5034142;28;20037;-80
2021/05/20 04:58:35;;;;;;;2.17;1.65;;;9.30;99.90;;;;;;5035334;28;20033;-80
2021/05/20 05:01:01;;;;;;;2.17;1.92;;;9.40;99.90;;;;;;5034208;28;20072;-80
2021/05/20 05:03:26;;;;;;;1.90;1.80;;;9.50;99.90;;;;;;5031790;28;20030;-80
2021/05/20 05:05:53;;;;;;;1.70;1.60;;;9.70;99.90;;;;;;5032451;28;20091;-81
2021/05/20 05:08:20;;;;;;;1.90;1.25;;;9.70;99.90;;;;;;5034878;28;20390;-80
2021/05/20 05:10:45;;;;;;;1.75;1.35;;;9.80;99.90;;;;;;5035483;28;20033;-80
2021/05/20 05:13:11;;;;;;;1.60;1.50;;;9.80;99.90;;;;;;5030599;28;20364;-81
2021/05/20 05:15:37;;;;;;;2.38;1.33;;;9.90;99.90;;;;;;5034549;28;20025;-81
2021/05/20 05:18:03;;;;;;;1.63;1.38;;;10.00;99.90;;;;;;5037980;28;20093;-81
2021/05/20 05:20:29;;;;;;;2.38;1.40;;;10.00;99.90;;;;;;5033781;28;20107;-81
2021/05/20 05:22:55;;;;;;;1.95;1.77;;;10.10;99.90;;;;;;5034518;28;20038;-81
2021/05/20 05:25:21;;;;;;;2.55;2.22;;;10.10;99.90;;;;;;5031908;28;20416;-81
2021/05/20 05:27:46;;;;;;;2.05;1.95;;;10.00;99.90;;;;;;5034573;28;20573;-80
2021/05/20 05:30:15;;;;;;;1.30;1.20;;;9.90;99.90;;;;;;5034384;28;20198;-79
2021/05/20 05:32:41;;;;;;;1.40;1.30;;;10.00;99.90;;;;;;5032614;28;20040;-79
2021/05/20 05:35:07;;;;;;;1.70;1.60;;;9.90;99.90;;;;;;5034846;28;20025;-81
2021/05/20 05:37:33;;;;;;;1.33;1.23;;;10.00;99.90;;;;;;5038052;28;20048;-81
2021/05/20 05:39:59;;;;;;;4.63;1.48;;;10.00;99.90;;;;;;5038644;28;20037;-80
2021/05/20 05:42:24;;;;;;;1.50;1.20;;;9.90;99.90;;;;;;5012748;28;20197;-80
2021/05/20 05:44:50;;;;;;;1.60;1.10;;;9.90;99.90;;;;;;5031042;28;20036;-80
2021/05/20 05:47:16;;;;;;;1.63;1.52;;;9.80;99.90;;;;;;5033929;28;20032;-80
2021/05/20 05:49:46;;;;;;;1.00;0.95;;;9.70;99.90;;;;;;5033429;28;20520;-81
2021/05/20 05:52:17;;;;;;;1.30;1.20;;;9.70;99.90;;;;;;5032460;28;20041;-80
2021/05/20 05:54:43;;;;;;;1.67;1.30;;;9.70;99.90;;;;;;5032547;28;20037;-79
2021/05/20 05:57:09;;;;;;;1.65;1.33;;;9.70;99.90;;;;;;5033264;28;20045;-80
2021/05/20 05:59:34;;;;;;;1.10;1.00;;;9.70;99.90;;;;;;5032916;28;20104;-81
2021/05/20 06:02:00;;;;;;;2.00;1.10;;;9.80;99.90;;;;;;5033252;28;20029;-81
2021/05/20 06:04:27;;;;;;;1.88;1.73;;;9.90;99.90;;;;;;5014505;28;20474;-80
2021/05/20 06:06:53;;;;;;;3.55;1.67;;;10.00;99.90;;;;;;5034001;28;20112;-80
2021/05/20 06:09:19;;;;;;;1.65;1.55;;;10.00;99.90;;;;;;5033197;28;20113;-80
2021/05/20 06:11:45;;;;;;;2.97;1.13;;;10.20;99.90;;;;;;5032333;28;20075;-80
2021/05/20 06:14:11;;;;;;;2.28;1.60;;;10.20;99.90;;;;;;5034119;28;20018;-80
2021/05/20 06:16:40;;;;;;;1.50;1.10;;;10.30;99.90;;;;;;5033512;28;20029;-81
2021/05/20 06:19:07;;;;;;;1.23;1.13;;;10.40;99.90;;;;;;5032355;28;20048;-80
2021/05/20 06:21:33;;;;;;;1.38;1.27;;;10.50;99.90;;;;;;5033145;28;20037;-80
2021/05/20 06:24:00;;;;;;;2.08;1.70;;;10.60;99.90;;;;;;5028564;28;20398;-81
2021/05/20 06:26:26;;;;;;;2.65;1.42;;;10.70;99.90;;;;;;5033335;28;20018;-78
2021/05/20 06:28:52;;;;;;;1.27;1.00;;;10.70;99.90;;;;;;5016371;28;20037;-80
2021/05/20 06:31:20;;;;;;;1.73;1.35;;;10.90;99.90;;;;;;5035195;28;20034;-81
2021/05/20 06:33:47;;;;;;;1.45;1.35;;;11.00;99.90;;;;;;5033940;28;20038;-80
2021/05/20 06:36:14;;;;;;;1.08;0.98;;;11.00;99.90;;;;;;5031743;28;20550;-80
2021/05/20 06:38:39;;;;;;;2.33;1.73;;;11.00;99.90;;;;;;5036068;28;20091;-80
2021/05/20 06:41:07;;;;;;;1.80;1.23;;;11.00;99.90;;;;;;5032963;28;20041;-81
2021/05/20 06:43:34;;;;;;;1.58;1.40;;;11.00;99.90;;;;;;5031647;28;20029;-81
2021/05/20 06:46:00;;;;;;;1.50;1.25;;;11.00;99.90;;;;;;5033276;28;20044;-80
2021/05/20 06:48:25;;;;;;;1.15;1.13;;;10.90;99.90;;;;;;5035354;28;20029;-80
2021/05/20 06:50:51;;;;;;;3.70;1.50;;;11.00;99.90;;;;;;5038765;28;20407;-81
2021/05/20 06:53:20;;;;;;;1.75;1.23;;;11.10;99.90;;;;;;5035432;28;20033;-79
2021/05/20 06:55:46;;;;;;;1.20;1.10;;;11.10;99.90;;;;;;5048148;28;20030;-79
2021/05/20 07:00:41;;;;;;;1.92;1.52;;;11.10;99.90;;;;;;5040477;28;20029;-80
2021/05/20 07:03:15;;;;;;;1.80;1.33;;;11.10;99.90;;;;;;5034971;28;20452;-80
2021/05/20 07:05:41;;;;;;;1.38;1.27;;;11.10;99.90;;;;;;5051883;28;20497;-79
2021/05/20 07:08:06;;;;;;;3.25;1.20;;;11.20;99.90;;;;;;5034549;28;20030;-79
2021/05/20 07:10:32;;;;;;;2.85;1.40;;;11.20;99.90;;;;;;5040417;28;20827;-80
2021/05/20 07:12:59;;;;;;;5.05;1.35;;;11.20;99.90;;;;;;5033743;28;20029;-80
2021/05/20 07:15:25;;;;;;;1.20;1.10;;;11.20;99.90;;;;;;5037539;28;20029;-80
2021/05/20 07:17:51;;;;;;;1.33;1.23;;;11.20;99.90;;;;;;5036192;28;20030;-80
2021/05/20 07:20:16;;;;;;;1.98;1.55;;;11.20;99.90;;;;;;5037399;28;20371;-79
2021/05/20 07:22:42;;;;;;;1.95;1.38;;;11.20;99.90;;;;;;5035321;28;20068;-80
2021/05/20 07:25:08;;;;;;;1.10;1.00;;;11.30;99.90;;;;;;5034627;28;20069;-79
2021/05/20 07:27:34;;;;;;;1.50;1.25;;;11.30;99.90;;;;;;5034931;28;20033;-78
2021/05/20 07:30:00;;;;;;;3.00;1.42;;;11.40;99.90;;;;;;5036147;28;20030;-80
2021/05/20 07:32:27;;;;;;;1.33;1.17;;;11.40;99.90;;;;;;5019272;28;20028;-80
2021/05/20 07:34:54;;;;;;;1.02;1.00;;;11.40;99.90;;;;;;5036045;28;20041;-80
2021/05/20 07:37:20;;;;;;;1.85;1.70;;;11.50;99.90;;;;;;5034888;28;20061;-80
2021/05/20 07:39:46;;;;;;;2.00;1.77;;;11.50;99.90;;;;;;5037745;28;20079;-80
2021/05/20 07:42:12;;;;;;;2.47;1.13;;;11.50;99.90;;;;;;5037372;28;20033;-79
2021/05/20 07:44:38;;;;;;;1.73;1.60;;;11.50;99.90;;;;;;5034636;28;20033;-80
2021/05/20 07:47:04;;;;;;;1.85;1.52;;;11.60;99.90;;;;;;5035760;28;20026;-80
2021/05/20 07:49:32;;;;;;;2.08;1.70;;;11.70;99.90;;;;;;5036532;28;20053;-80
2021/05/20 07:51:58;;;;;;;1.38;1.25;;;11.80;99.90;;;;;;5036674;28;20029;-80
2021/05/20 07:54:24;;;;;;;2.28;1.50;;;12.00;99.90;;;;;;5034964;28;20022;-80
2021/05/20 07:56:50;;;;;;;1.40;1.30;;;12.00;99.90;;;;;;5018650;28;20378;-80
2021/05/20 07:59:15;;;;;;;1.50;1.40;;;12.10;99.90;;;;;;5018593;28;20080;-80
2021/05/20 08:01:51;;;;;;;1.38;1.27;;;12.10;99.90;;;;;;5032375;28;20040;-81
2021/05/20 08:04:19;;;;;;;2.42;1.30;;;12.30;99.90;;;;;;5036022;28;20038;-80
2021/05/20 08:06:59;;;;;;;1.52;1.42;;;12.50;99.90;;;;;;5035407;28;20591;-80
2021/05/20 08:09:32;;;;;;;1.58;1.48;;;12.80;99.90;;;;;;5038145;28;20125;-81
2021/05/20 08:11:58;;;;;;;1.63;1.40;;;12.90;99.90;;;;;;5032475;28;20049;-80
2021/05/20 08:14:23;;;;;;;1.70;1.20;;;12.90;99.90;;;;;;5033621;28;20513;-80
2021/05/20 08:16:49;;;;;;;3.33;1.45;;;13.00;99.90;;;;;;5034688;28;20624;-81
2021/05/20 08:19:15;;;;;;;1.52;1.10;;;12.90;99.90;;;;;;5016080;28;20030;-79
2021/05/20 08:21:41;;;;;;;1.67;1.27;;;13.00;99.90;;;;;;5033740;28;20057;-80
2021/05/20 08:24:07;;;;;;;2.92;1.30;;;13.20;99.90;;;;;;5028369;28;20057;-80
2021/05/20 08:26:33;;;;;;;1.55;1.40;;;13.30;99.90;;;;;;5014469;28;20033;-80
2021/05/20 08:28:59;;;;;;;3.50;1.55;;;13.40;99.90;;;;;;5030067;28;20021;-81
2021/05/20 08:31:26;;;;;;;1.95;1.60;;;13.50;99.90;;;;;;5030769;28;20116;-80
2021/05/20 08:33:52;;;;;;;2.72;1.30;;;13.70;99.90;;;;;;5030243;28;20038;-81
2021/05/20 08:36:18;;;;;;;1.85;1.67;;;14.00;99.90;;;;;;5027208;28;20033;-80
2021/05/20 08:38:43;;;;;;;2.63;1.75;;;14.30;99.90;;;;;;5033574;28;20024;-80
2021/05/20 08:41:09;;;;;;;1.42;1.23;;;14.60;99.90;;;;;;5026996;28;20405;-80
2021/05/20 08:43:37;;;;;;;1.08;0.98;;;15.10;99.90;;;;;;5010946;28;20033;-81
2021/05/20 08:46:02;;;;;;;0.90;0.90;;;15.30;99.90;;;;;;5029896;28;20041;-80
2021/05/20 08:48:28;;;;;;;1.98;1.20;;;15.50;99.90;;;;;;5032195;28;20694;-80
2021/05/20 08:50:54;;;;;;;3.05;0.75;;;15.70;99.90;;;;;;5038562;28;20037;-79
2021/05/20 08:53:20;;;;;;;1.00;1.00;;;15.70;99.90;;;;;;5030587;28;20108;-81
2021/05/20 08:55:45;;;;;;;1.02;0.90;;;15.60;99.90;;;;;;5036453;28;20389;-80
2021/05/20 08:58:11;;;;;;;0.80;0.80;;;15.60;99.90;;;;;;4999373;28;20047;-80
2021/05/20 09:00:41;;;;;;;0.80;0.80;;;15.90;99.90;;;;;;5033488;28;20030;-81
2021/05/20 09:03:13;;;;;;;1.95;1.02;;;15.90;99.90;;;;;;5029503;28;20040;-80
2021/05/20 09:05:40;;;;;;;2.15;0.93;;;16.10;99.90;;;;;;5046003;28;20041;-80
2021/05/20 09:08:12;;;;;;;0.73;0.70;;;16.40;99.90;;;;;;5032323;28;20040;-81
2021/05/20 09:10:40;;;;;;;0.80;0.80;;;16.60;99.90;;;;;;5030734;28;20560;-81
2021/05/20 09:13:14;;;;;;;0.63;0.60;;;16.70;99.90;;;;;;5026459;28;20040;-80
2021/05/20 09:15:43;;;;;;;1.08;0.98;;;16.70;99.90;;;;;;5013407;28;20029;-79
2021/05/20 09:18:14;;;;;;;1.25;1.05;;;16.80;99.90;;;;;;5030586;28;20092;-80
2021/05/20 09:20:43;;;;;;;2.17;0.80;;;16.60;99.90;;;;;;5030555;28;20040;-80
2021/05/20 09:23:14;;;;;;;0.93;0.70;;;16.50;99.90;;;;;;4998170;28;20041;-80
2021/05/20 09:25:42;;;;;;;2.22;0.82;;;16.20;99.90;;;;;;5025601;28;20547;-80
2021/05/20 09:28:09;;;;;;;0.60;0.60;;;16.10;99.90;;;;;;5012295;28;20048;-80
2021/05/20 09:30:45;;;;;;;0.75;0.70;;;16.20;99.90;;;;;;5035057;28;20029;-80
2021/05/20 09:33:13;;;;;;;1.95;0.88;;;16.20;99.90;;;;;;5028262;28;20091;-80
2021/05/20 09:35:43;;;;;;;2.05;0.68;;;16.00;99.90;;;;;;5031012;28;20513;-79
2021/05/20 09:38:11;;;;;;;0.65;0.65;;;15.90;99.90;;;;;;5038261;28;20052;-79
2021/05/20 09:40:44;;;;;;;1.60;0.82;;;15.90;99.90;;;;;;5032504;28;20433;-80
2021/05/20 09:43:34;;;;;;;1.35;0.80;;;15.90;99.90;;;;;;5027455;28;20544;-80
2021/05/20 09:46:09;;;;;;;1.83;0.52;;;15.80;99.90;;;;;;5025390;28;20076;-80
2021/05/20 09:48:37;;;;;;;1.50;1.00;;;15.90;99.90;;;;;;5031397;28;20053;-80
2021/05/20 09:51:05;;;;;;;2.17;0.80;;;15.80;99.90;;;;;;5030090;28;20057;-79
2021/05/20 09:53:42;;;;;;;1.33;0.70;;;15.90;99.90;;;;;;5022077;28;20708;-80
2021/05/20 09:56:09;;;;;;;1.67;0.82;;;15.90;99.90;;;;;;5028873;28;20032;-80
2021/05/20 09:58:35;;;;;;;1.25;0.73;;;15.80;99.90;;;;;;5030418;28;20533;-80
2021/05/20 10:01:02;;;;;;;0.80;0.80;;;15.80;99.90;;;;;;5031203;28;20032;-79
2021/05/20 10:03:29;;;;;;;0.80;0.80;;;15.80;99.90;;;;;;5025417;28;20103;-80
2021/05/20 10:05:57;;;;;;;1.05;0.80;;;16.00;99.90;;;;;;5029973;28;20025;-80
2021/05/20 10:08:24;;;;;;;1.85;0.60;;;16.20;99.90;;;;;;5031602;28;20095;-81
2021/05/20 10:10:55;;;;;;;0.43;0.40;;;16.20;99.90;;;;;;5030056;28;20113;-80
2021/05/20 10:13:27;;;;;;;2.05;0.70;;;16.30;99.90;;;;;;5022471;28;20048;-80
2021/05/20 10:15:55;;;;;;;1.42;0.60;;;16.30;99.90;;;;;;5023270;28;20029;-81
2021/05/20 10:18:25;;;;;;;0.85;0.75;;;16.30;99.90;;;;;;5029018;28;20453;-81
2021/05/20 10:20:58;;;;;;;1.00;0.80;;;16.40;99.90;;;;;;5028669;28;20037;-79
2021/05/20 10:23:25;;;;;;;0.70;0.60;;;16.50;99.90;;;;;;5025872;28;20045;-79
2021/05/20 10:25:53;;;;;;;0.82;0.82;;;16.50;99.90;;;;;;5034775;28;20076;-80
2021/05/20 10:28:20;;;;;;;2.42;0.70;;;16.50;99.90;;;;;;5033511;28;20028;-80
2021/05/20 10:30:48;;;;;;;2.15;0.68;;;16.60;99.90;;;;;;5018420;28;20025;-79
2021/05/20 10:33:16;;;;;;;1.25;0.80;;;16.60;99.90;;;;;;5031960;28;20325;-81
2021/05/20 10:35:51;;;;;;;0.77;0.77;;;16.60;99.90;;;;;;5031414;28;20037;-79
2021/05/20 10:38:36;;;;;;;0.90;0.60;;;16.50;99.90;;;;;;5029310;28;20037;-79
2021/05/20 10:41:18;;;;;;;1.30;0.80;;;16.30;99.90;;;;;;5032341;28;20083;-78
2021/05/20 10:43:49;;;;;;;0.88;0.80;;;16.50;99.90;;;;;;5026902;28;20488;-79
2021/05/20 10:46:18;;;;;;;0.50;0.50;;;16.70;99.90;;;;;;5031381;28;20033;-81
2021/05/20 10:48:54;;;;;;;1.08;0.80;;;16.80;99.90;;;;;;5032373;28;20052;-80
2021/05/20 10:51:32;;;;;;;0.95;0.57;;;17.00;99.90;;;;;;5029804;28;20060;-80
2021/05/20 10:54:04;;;;;;;0.88;0.88;;;17.20;99.90;;;;;;5028808;28;20025;-78
2021/05/20 10:56:31;;;;;;;1.30;0.90;;;17.20;99.90;;;;;;5031337;28;20029;-80
2021/05/20 10:58:58;;;;;;;1.08;0.80;;;17.30;97.70;;;;;;5028836;28;20021;-78
2021/05/20 11:01:24;;;;;;;0.80;0.80;;;17.30;96.70;;;;;;5015686;28;20044;-80
2021/05/20 11:03:56;;;;;;;1.40;0.60;;;17.10;95.50;;;;;;5027208;28;20481;-80
2021/05/20 11:06:35;;;;;;;1.00;0.80;;;17.10;99.10;;;;;;5028318;28;20068;-80
2021/05/20 11:09:19;;;;;;;0.50;0.50;;;16.90;96.10;;;;;;5030296;28;20482;-80
2021/05/20 11:11:45;;;;;;;3.25;0.90;;;16.70;98.90;;;;;;5027363;28;20492;-81
2021/05/20 11:14:14;;;;;;;0.63;0.60;;;16.50;98.70;;;;;;5029223;28;20037;-81
2021/05/20 11:16:44;;;;;;;0.70;0.70;;;16.40;99.90;;;;;;5032136;28;20040;-80
2021/05/20 11:19:19;;;;;;;0.60;0.60;;;16.20;99.90;;;;;;5039966;28;20017;-80
2021/05/20 11:22:07;;;;;;;1.00;0.90;;;16.00;99.90;;;;;;5025620;28;20029;-80
2021/05/20 11:24:42;;;;;;;0.80;0.80;;;15.90;99.90;;;;;;5026807;28;20041;-80
2021/05/20 11:27:19;;;;;;;0.90;0.80;;;15.90;99.90;;;;;;5030377;28;20036;-79
2021/05/20 11:29:48;;;;;;;1.13;0.70;;;16.00;99.90;;;;;;5036840;28;20030;-80
2021/05/20 11:37:32;;;;;;;1.15;0.82;;;16.40;99.90;;;;;;5039344;28;20544;-80
2021/05/20 11:39:58;;;;;;;0.90;0.90;;;16.50;99.90;;;;;;5035653;28;20057;-80
2021/05/20 11:42:31;;;;;;;0.68;0.65;;;16.50;98.70;;;;;;5034433;28;20029;-79
2021/05/20 11:45:02;;;;;;;0.77;0.77;;;16.50;99.90;;;;;;5028200;28;20025;-82
2021/05/20 11:47:28;;;;;;;0.82;0.73;;;16.50;99.30;;;;;;5034746;28;20037;-81
2021/05/20 11:49:54;;;;;;;1.08;0.80;;;16.40;99.90;;;;;;5035395;28;20390;-80
2021/05/20 11:52:21;;;;;;;0.98;0.90;;;16.30;99.60;;;;;;5029974;28;20021;-79
2021/05/20 11:54:52;;;;;;;1.48;0.60;;;16.20;99.50;;;;;;5032840;28;20703;-79
2021/05/20 11:57:23;;;;;;;1.67;0.75;;;16.20;99.90;;;;;;5031198;28;20076;-78
2021/05/20 11:59:51;;;;;;;1.33;0.60;;;16.10;99.90;;;;;;5033196;28;20132;-78
2021/05/20 12:02:33;;;;;;;0.60;0.60;;;16.00;99.80;;;;;;5032950;28;20026;-80
2021/05/20 12:05:21;;;;;;;0.85;0.50;;;16.00;99.90;;;;;;5031949;28;20501;-79
2021/05/20 12:07:47;;;;;;;1.13;0.60;;;16.00;99.90;;;;;;5032736;28;20028;-79
2021/05/20 12:10:19;;;;;;;0.88;0.75;;;16.00;99.90;;;;;;5015423;28;20765;-79
2021/05/20 12:13:06;;;;;;;1.35;0.70;;;16.10;99.90;;;;;;5032744;28;20022;-79
2021/05/20 12:15:32;;;;;;;1.38;0.98;;;16.10;99.90;;;;;;5032557;28;20053;-79
2021/05/20 12:18:00;;;;;;;0.75;0.75;;;16.30;99.90;;;;;;5033687;28;20076;-79
2021/05/20 12:20:27;;;;;;;0.90;0.90;;;16.70;99.90;;;;;;5034580;28;20068;-80
2021/05/20 12:22:53;;;;;;;3.35;1.20;;;17.20;99.90;;;;;;5031562;28;20044;-78
2021/05/20 12:25:24;;;;;;;1.10;1.00;;;17.80;97.60;;;;;;5029690;28;20052;-81
2021/05/20 12:27:52;;;;;;;0.85;0.85;;;18.20;93.40;;;;;;5028700;28;20679;-78
2021/05/20 12:30:29;;;;;;;1.80;0.90;;;18.30;94.80;;;;;;5007926;28;20033;-78
2021/05/20 12:33:08;;;;;;;0.60;0.60;;;18.30;95.00;;;;;;5030905;28;20108;-80
2021/05/20 12:35:38;;;;;;;1.58;0.60;;;18.30;95.70;;;;;;5013276;28;20041;-80
2021/05/20 12:38:13;;;;;;;1.13;0.80;;;18.20;93.50;;;;;;5035192;28;20898;-80
2021/05/20 12:40:48;;;;;;;1.37;0.90;;;18.10;93.60;;;;;;5028586;28;20033;-78
2021/05/20 12:43:32;;;;;;;0.75;0.75;;;18.20;94.00;;;;;;5030536;28;20065;-79
2021/05/20 12:46:06;;;;;;;1.30;1.20;;;18.50;93.30;;;;;;5028372;28;20045;-80
2021/05/20 12:48:33;;;;;;;2.70;0.90;;;18.80;91.10;;;;;;5029869;28;20113;-78
2021/05/20 12:51:00;;;;;;;1.75;1.10;;;19.20;92.70;;;;;;5011761;28;20068;-78
2021/05/20 12:53:36;;;;;;;0.63;0.63;;;19.40;83.70;;;;;;5029736;28;20049;-78
2021/05/20 12:56:27;;;;;;;0.55;0.50;;;19.20;86.40;;;;;;5028267;28;20076;-79
2021/05/20 12:59:02;;;;;;;0.90;0.88;;;19.00;91.50;;;;;;5020871;28;20053;-78
2021/05/20 13:01:43;;;;;;;0.60;0.60;;;18.90;90.60;;;;;;5025818;28;20091;-78
2021/05/20 13:04:09;;;;;;;0.90;0.77;;;18.50;91.10;;;;;;5029761;28;20030;-78